Data for 01/31/2014

Time Sea-Level Adjusted Pressure Absolute Pressure Temperature Relative Humidity Dew Point   
(mb) (inHg) (mb) (inHg) (C) (F) (%) (C) (F)
00:05 1011 29.85 840 24.81 -11.7 10.9 86 -13.6 7.6
00:10 1011 29.85 840 24.81 -11.7 10.9 86 -13.5 7.6
00:15 1011 29.85 840 24.81 -11.8 10.8 86 -13.7 7.3
00:20 1011 29.85 840 24.81 -11.9 10.6 87 -13.7 7.4
00:25 1011 29.85 840 24.81 -11.9 10.6 87 -13.6 7.5
00:30 1011 29.85 840 24.81 -11.9 10.5 88 -13.6 7.6
00:35 1011 29.85 840 24.81 -12 10.5 87 -13.7 7.4
00:40 1011 29.85 840 24.81 -12 10.4 87 -13.7 7.3
00:45 1011 29.85 840 24.81 -12 10.3 87 -13.8 7.1
00:50 1011 29.85 840 24.81 -11.9 10.6 87 -13.7 7.4
00:55 1011 29.85 840 24.81 -11.7 11 86 -13.5 7.7
01:00 1011 29.85 840 24.81 -11.5 11.3 86 -13.5 7.8
01:05 1011 29.85 840 24.81 -11.7 10.9 86 -13.6 7.6
01:10 1011 29.85 840 24.81 -11.9 10.7 87 -13.7 7.4
01:15 1011 29.85 840 24.81 -11.9 10.6 87 -13.6 7.5
01:20 1010 29.83 840 24.81 -11.8 10.9 87 -13.5 7.7
01:25 1010 29.83 840 24.81 -11.7 10.9 87 -13.5 7.7
01:30 1010 29.83 840 24.81 -11.8 10.8 87 -13.5 7.7
01:35 1010 29.83 840 24.81 -11.8 10.8 87 -13.5 7.6
01:40 1010 29.83 840 24.81 -11.8 10.7 88 -13.5 7.8
01:45 1010 29.83 839 24.78 -11.8 10.7 88 -13.4 7.8
01:50 1010 29.83 839 24.78 -11.8 10.7 88 -13.5 7.8
01:55 1010 29.83 839 24.78 -11.9 10.5 88 -13.5 7.6
02:00 1010 29.83 839 24.78 -12 10.4 88 -13.6 7.6
02:05 1010 29.83 839 24.78 -12.1 10.3 89 -13.6 7.6
02:10 1010 29.83 839 24.78 -12.1 10.2 89 -13.6 7.6
02:15 1010 29.83 839 24.78 -12.2 10.1 89 -13.6 7.5
02:20 1010 29.83 839 24.78 -12.3 9.9 89 -13.7 7.4
02:25 1010 29.83 839 24.78 -12.4 9.8 90 -13.7 7.3
02:30 1010 29.83 839 24.78 -12.4 9.7 90 -13.7 7.3
02:35 1010 29.83 839 24.78 -12.5 9.6 90 -13.8 7.2
02:40 1010 29.83 839 24.78 -12.5 9.5 90 -13.8 7.1
02:45 1010 29.83 839 24.78 -12.6 9.4 90 -13.9 7
02:50 1010 29.83 839 24.78 -12.6 9.3 90 -13.9 6.9
02:55 1010 29.83 839 24.78 -12.7 9.2 90 -14 6.8
03:00 1010 29.83 839 24.78 -12.7 9.2 90 -14 6.8
03:05 1010 29.83 839 24.78 -12.7 9.2 90 -14.1 6.7
03:10 1010 29.83 839 24.78 -12.7 9.1 89 -14.2 6.5
03:15 1010 29.83 839 24.78 -12.8 8.9 89 -14.3 6.3
03:20 1010 29.83 839 24.78 -13 8.7 89 -14.3 6.2
03:25 1010 29.83 839 24.78 -13 8.7 90 -14.3 6.2
03:30 1010 29.83 839 24.78 -13.1 8.4 89 -14.6 5.7
03:35 1010 29.83 839 24.78 -13.3 8.2 90 -14.5 5.8
03:40 1010 29.83 839 24.78 -13.2 8.2 91 -14.4 6.1
03:45 1010 29.83 839 24.78 -13.3 8.1 90 -14.6 5.8
03:50 1010 29.83 839 24.78 -13.5 7.7 89 -15 5
03:55 1010 29.83 839 24.78 -13.6 7.5 89 -15.1 4.9
04:00 1010 29.83 839 24.78 -13.8 7.3 91 -15 5.1
04:05 1010 29.83 839 24.78 -13.6 7.4 91 -14.9 5.2
04:10 1010 29.83 839 24.78 -13.7 7.4 89 -15.1 4.9
04:15 1010 29.83 839 24.78 -13.8 7.2 89 -15.2 4.6
04:20 1010 29.83 839 24.78 -13.9 7 88 -15.4 4.2
04:25 1010 29.83 839 24.78 -13.9 7 89 -15.3 4.4
04:30 1010 29.83 839 24.78 -13.9 7 90 -15.2 4.6
04:35 1010 29.83 839 24.78 -14.3 6.3 88 -15.8 3.6
04:40 1010 29.83 839 24.78 -15.1 4.9 88 -16.7 2
04:45 1009 29.8 839 24.78 -15.4 4.3 89 -16.8 1.7
04:50 1010 29.83 839 24.78 -15.4 4.2 88 -17 1.4
04:55 1009 29.8 839 24.78 -15.2 4.6 91 -16.4 2.4
05:00 1009 29.8 839 24.78 -14.8 5.4 88 -16.4 2.4
05:05 1010 29.83 839 24.78 -14.8 5.5 87 -16.5 2.3
05:10 1009 29.8 839 24.78 -14.8 5.3 87 -16.6 2.2
05:15 1009 29.8 838 24.75 -14.9 5.2 87 -16.6 2.1
05:20 1009 29.8 839 24.78 -14.7 5.5 85 -16.7 1.9
05:25 1009 29.8 838 24.75 -15 5.1 90 -16.3 2.7
05:30 1009 29.8 838 24.75 -14.8 5.3 90 -16.1 3
05:35 1009 29.8 839 24.78 -14.6 5.8 90 -15.8 3.5
05:40 1009 29.8 839 24.78 -14.3 6.3 89 -15.8 3.6
05:45 1009 29.8 838 24.75 -14.2 6.4 87 -15.9 3.3
05:50 1009 29.8 838 24.75 -14.3 6.4 88 -15.9 3.4
05:55 1009 29.8 838 24.75 -14.2 6.4 88 -15.8 3.5
06:00 1009 29.8 838 24.75 -14.2 6.5 88 -15.8 3.6
06:05 1009 29.8 839 24.78 -14 6.8 86 -15.8 3.5
06:10 1009 29.8 839 24.78 -14.1 6.7 85 -16.1 3.1
06:15 1009 29.8 839 24.78 -14.4 6.1 85 -16.4 2.6
06:20 1009 29.8 839 24.78 -14.6 5.7 86 -16.4 2.4
06:25 1009 29.8 839 24.78 -14.7 5.5 86 -16.5 2.2
06:30 1009 29.8 839 24.78 -14.8 5.4 85 -16.8 1.8
06:35 1009 29.8 839 24.78 -15 4.9 87 -16.8 1.8
06:40 1009 29.8 839 24.78 -14.9 5.2 88 -16.4 2.4
06:45 1009 29.8 839 24.78 -14.6 5.8 87 -16.2 2.8
06:50 1009 29.8 839 24.78 -14.5 5.9 87 -16.2 2.8
06:55 1009 29.8 839 24.78 -14.7 5.5 84 -16.8 1.8
07:00 1009 29.8 839 24.78 -15.1 4.8 86 -16.9 1.5
07:05 1009 29.8 839 24.78 -15.2 4.7 87 -16.8 1.7
07:10 1010 29.83 839 24.78 -15.2 4.7 87 -16.9 1.6
07:15 1010 29.83 839 24.78 -15.2 4.7 88 -16.7 1.9
07:20 1010 29.83 839 24.78 -14.8 5.3 88 -16.4 2.4
07:25 1009 29.8 839 24.78 -14.8 5.5 87 -16.4 2.5
07:30 1009 29.8 839 24.78 -14.6 5.8 88 -16.2 2.8
07:35 1009 29.8 839 24.78 -14.4 6 87 -16.2 2.9
07:40 1010 29.83 839 24.78 -14.3 6.2 87 -16 3.1
07:45 1010 29.83 839 24.78 -14.3 6.2 87 -16.1 3
07:50 1010 29.83 839 24.78 -14.3 6.2 87 -16.1 3
07:55 1010 29.83 839 24.78 -14.3 6.2 85 -16.4 2.6
08:00 1009 29.8 839 24.78 -14.8 5.4 86 -16.6 2.1
08:05 1009 29.8 839 24.78 -14.9 5.2 86 -16.8 1.8
08:10 1009 29.8 839 24.78 -14.9 5.2 85 -16.8 1.7
08:15 1009 29.8 839 24.78 -15 5.1 87 -16.7 2
08:20 1009 29.8 838 24.75 -14.6 5.6 86 -16.4 2.4
08:25 1009 29.8 838 24.75 -14.3 6.2 87 -16.1 3
08:30 1009 29.8 839 24.78 -14 6.8 86 -15.9 3.4
08:35 1009 29.8 839 24.78 -13.9 7 87 -15.7 3.8
08:40 1009 29.8 839 24.78 -14 6.8 86 -15.8 3.5
08:45 1009 29.8 839 24.78 -13.9 7 86 -15.7 3.7
08:50 1009 29.8 839 24.78 -13.7 7.4 85 -15.6 3.9
08:55 1009 29.8 839 24.78 -13.4 7.8 85 -15.4 4.3
09:00 1010 29.83 839 24.78 -13.3 8.1 85 -15.2 4.6
09:05 1010 29.83 839 24.78 -13.1 8.4 85 -15.2 4.7
09:10 1010 29.83 839 24.78 -13 8.5 85 -15.1 4.8
09:15 1010 29.83 839 24.78 -13.2 8.3 85 -15.1 4.8
09:20 1010 29.83 839 24.78 -13.1 8.4 86 -15 5
09:25 1010 29.83 839 24.78 -12.8 8.9 85 -14.8 5.3
09:30 1010 29.83 839 24.78 -12.5 9.5 85 -14.5 5.8
09:35 1010 29.83 839 24.78 -12.3 9.9 83 -14.6 5.8
09:40 1010 29.83 839 24.78 -12.2 10 84 -14.4 6.1
09:45 1010 29.83 839 24.78 -12.3 9.9 84 -14.5 5.9
09:50 1010 29.83 839 24.78 -12.5 9.5 85 -14.5 5.8
09:55 1010 29.83 839 24.78 -12.5 9.4 84 -14.6 5.6
10:00 1010 29.83 839 24.78 -12.5 9.6 85 -14.5 6
10:05 1010 29.83 839 24.78 -12.2 10.1 84 -14.4 6.1
10:10 1010 29.83 839 24.78 -12.1 10.2 84 -14.2 6.4
10:15 1010 29.83 839 24.78 -11.8 10.7 84 -14 6.8
10:20 1010 29.83 839 24.78 -11.6 11 83 -13.9 6.9
10:25 1010 29.83 839 24.78 -11.5 11.4 85 -13.6 7.6
10:30 1010 29.83 839 24.78 -11.1 12 83 -13.5 7.8
10:35 1010 29.83 839 24.78 -11.1 12.1 83 -13.4 8
10:40 1010 29.83 839 24.78 -11 12.1 85 -13.1 8.3
10:45 1010 29.83 839 24.78 -10.7 12.7 84 -13 8.6
10:50 1010 29.83 839 24.78 -10.3 13.5 82 -12.8 8.9
10:55 1010 29.83 839 24.78 -10 14 82 -12.5 9.4
11:00 1010 29.83 839 24.78 -9.6 14.7 80 -12.4 9.6
11:05 1010 29.83 839 24.78 -8.9 16 80 -11.8 10.8
11:10 1010 29.83 839 24.78 -8.2 17.2 75 -11.8 10.7
11:15 1010 29.83 839 24.78 -8 17.6 76 -11.6 11.2
11:20 1010 29.83 839 24.78 -7.2 19.1 71 -11.5 11.3
11:25 1010 29.83 839 24.78 -7 19.4 71 -11.4 11.5
11:30 1010 29.83 839 24.78 -7.3 18.9 70 -11.8 10.7
11:35 1010 29.83 839 24.78 -7.1 19.2 69 -11.9 10.6
11:40 1010 29.83 839 24.78 -7.2 19.1 70 -11.8 10.7
11:45 1010 29.83 839 24.78 -7 19.5 67 -12.1 10.3
11:50 1010 29.83 839 24.78 -6.9 19.5 69 -11.7 10.9
11:55 1010 29.83 839 24.78 -7.1 19.2 70 -11.7 11
12:00 1010 29.83 839 24.78 -7.7 18.2 71 -12.1 10.2
12:05 1010 29.83 840 24.81 -7.8 18 74 -11.6 11.1
12:10 1010 29.83 839 24.78 -7.7 18.2 72 -11.8 10.7
12:15 1010 29.83 839 24.78 -8 17.7 74 -11.8 10.8
12:20 1010 29.83 839 24.78 -8.2 17.2 76 -11.8 10.8
12:25 1010 29.83 839 24.78 -8.1 17.5 74 -11.9 10.5
12:30 1010 29.83 839 24.78 -7.7 18.2 75 -11.4 11.6
12:35 1010 29.83 839 24.78 -7 19.4 68 -12 10.3
12:40 1010 29.83 839 24.78 -7.1 19.1 69 -11.8 10.7
12:45 1010 29.83 839 24.78 -6.5 20.3 67 -11.7 11
12:50 1010 29.83 839 24.78 -5.5 22.1 63 -11.6 11.2
12:55 1010 29.83 839 24.78 -5.3 22.5 64 -11.2 11.9
13:00 1010 29.83 839 24.78 -5 23 60 -11.6 11.2
13:05 1010 29.83 839 24.78 -5 23.1 60 -11.6 11.1
13:10 1010 29.83 839 24.78 -5.3 22.5 61 -11.6 11.1
13:15 1010 29.83 839 24.78 -4.7 23.6 60 -11.4 11.5
13:20 1010 29.83 839 24.78 -4 24.9 58 -11 12.3
13:25 1009 29.8 839 24.78 -4.3 24.2 60 -11.1 12.1
13:30 1009 29.8 839 24.78 -3.4 25.9 54 -11.5 11.4
13:35 1009 29.8 839 24.78 -3.2 26.2 54 -11.2 11.8
13:40 1009 29.8 839 24.78 -3.4 26 54 -11.3 11.7
13:45 1009 29.8 839 24.78 -3.9 25.1 58 -11.1 12.1
13:50 1009 29.8 839 24.78 -4.8 23.3 60 -11.4 11.5
13:55 1009 29.8 838 24.75 -4.4 24.1 58 -11.4 11.4
14:00 1009 29.8 838 24.75 -4.8 23.4 58 -11.9 10.6
14:05 1009 29.8 838 24.75 -5 23 59 -11.9 10.6
14:10 1009 29.8 838 24.75 -4.8 23.4 59 -11.6 11.2
14:15 1009 29.8 838 24.75 -3.8 25.1 56 -11.3 11.6
14:20 1009 29.8 838 24.75 -3.3 26.1 52 -11.8 10.8
14:25 1009 29.8 838 24.75 -3.5 25.7 55 -11.3 11.6
14:30 1009 29.8 838 24.75 -3.5 25.8 54 -11.5 11.4
14:35 1009 29.8 838 24.75 -3.1 26.5 52 -11.6 11.2
14:40 1009 29.8 838 24.75 -3.1 26.4 52 -11.5 11.3
14:45 1009 29.8 838 24.75 -3.3 26.1 52 -11.8 10.8
14:50 1009 29.8 838 24.75 -3.2 26.3 53 -11.5 11.2
14:55 1009 29.8 838 24.75 -3.3 26 51 -12 10.4
15:00 1009 29.8 838 24.75 -3.8 25.2 57 -11.1 11.9
15:05 1009 29.8 838 24.75 -3.5 25.8 55 -11.2 11.8
15:10 1009 29.8 838 24.75 -3 26.6 53 -11.4 11.5
15:15 1009 29.8 838 24.75 -2.4 27.7 50 -11.6 11.2
15:20 1009 29.8 838 24.75 -2 28.3 50 -11.1 12.1
15:25 1009 29.8 838 24.75 -2.5 27.4 52 -11.1 12
15:30 1009 29.8 838 24.75 -2.7 27.1 53 -11 12.2
15:35 1009 29.8 838 24.75 -2.6 27.3 53 -10.8 12.5
15:40 1009 29.8 838 24.75 -2.8 27 56 -10.5 13.1
15:45 1009 29.8 838 24.75 -2.8 27 55 -10.6 12.9
15:50 1009 29.8 838 24.75 -2.5 27.4 52 -11 12.2
15:55 1009 29.8 838 24.75 -2.4 27.6 52 -10.9 12.4
16:00 1009 29.8 838 24.75 -2.5 27.4 53 -10.9 12.3
16:05 1009 29.8 838 24.75 -2.1 28.2 50 -11.2 11.9
16:10 1009 29.8 838 24.75 -2.3 27.9 53 -10.6 12.9
16:15 1009 29.8 838 24.75 -2.7 27.1 52 -11.3 11.6
16:20 1009 29.8 838 24.75 -3.2 26.2 54 -11.3 11.7
16:25 1009 29.8 838 24.75 -3.3 26.1 52 -11.8 10.8
16:30 1009 29.8 838 24.75 -2.8 27 51 -11.6 11
16:35 1009 29.8 838 24.75 -2.3 27.9 50 -11.3 11.7
16:40 1009 29.8 838 24.75 -2.7 27.2 52 -11.3 11.6
16:45 1009 29.8 838 24.75 -3.5 25.7 54 -11.6 11.2
16:50 1009 29.8 838 24.75 -3.4 25.8 57 -10.7 12.7
16:55 1009 29.8 838 24.75 -3.3 26.1 57 -10.7 12.7
17:00 1009 29.8 838 24.75 -3 26.7 54 -11 12.1
17:05 1009 29.8 838 24.75 -2.8 26.9 54 -11 12.2
17:10 1009 29.8 838 24.75 -3.1 26.5 55 -10.8 12.6
17:15 1009 29.8 838 24.75 -3.2 26.2 57 -10.6 12.8
17:20 1009 29.8 838 24.75 -3.3 26.1 56 -10.8 12.6
17:25 1009 29.8 838 24.75 -3.1 26.3 57 -10.5 13.1
17:30 1009 29.8 838 24.75 -3.2 26.3 58 -10.2 13.6
17:35 1009 29.8 838 24.75 -3.2 26.2 57 -10.7 12.8
17:40 1009 29.8 838 24.75 -3.3 26.1 59 -10.2 13.6
17:45 1009 29.8 838 24.75 -3.5 25.8 58 -10.5 13.1
17:50 1009 29.8 838 24.75 -3.5 25.8 59 -10.3 13.5
17:55 1009 29.8 838 24.75 -3.6 25.5 60 -10.4 13.3
18:00 1009 29.8 838 24.75 -3.7 25.3 61 -10.1 13.8
18:05 1009 29.8 838 24.75 -3.9 25 62 -10.1 13.8
18:10 1009 29.8 838 24.75 -3.9 24.9 62 -10.2 13.6
18:15 1009 29.8 838 24.75 -4 24.8 62 -10.2 13.6
18:20 1009 29.8 838 24.75 -4 24.7 61 -10.5 13.1
18:25 1009 29.8 838 24.75 -4.1 24.7 61 -10.4 13.2
18:30 1009 29.8 838 24.75 -4.1 24.6 63 -10.2 13.6
18:35 1009 29.8 838 24.75 -4.3 24.3 63 -10.3 13.5
18:40 1009 29.8 838 24.75 -4.4 24.2 64 -10.2 13.6
18:45 1009 29.8 838 24.75 -4.5 23.9 64 -10.3 13.4
18:50 1009 29.8 838 24.75 -5.1 22.9 66 -10.5 13.1
18:55 1009 29.8 838 24.75 -5.3 22.4 66 -10.7 12.7
19:00 1009 29.8 839 24.78 -5.3 22.4 68 -10.4 13.3
19:05 1009 29.8 838 24.75 -5.3 22.4 67 -10.5 13.1
19:10 1009 29.8 838 24.75 -5.3 22.5 67 -10.5 13
19:15 1009 29.8 838 24.75 -5.1 22.9 67 -10.2 13.6
19:20 1009 29.8 838 24.75 -5 23 67 -10.3 13.5
19:25 1009 29.8 838 24.75 -5.2 22.7 67 -10.4 13.3
19:30 1009 29.8 839 24.78 -5.1 22.8 67 -10.2 13.6
19:35 1009 29.8 839 24.78 -5 23 67 -10.2 13.6
19:40 1009 29.8 839 24.78 -5 23 68 -10.1 13.8
19:45 1009 29.8 839 24.78 -5.1 22.9 68 -10.1 13.8
19:50 1009 29.8 838 24.75 -5.2 22.7 68 -10.2 13.6
19:55 1009 29.8 839 24.78 -5.1 22.9 68 -10 14
20:00 1009 29.8 839 24.78 -5.1 22.9 69 -9.9 14.2
20:05 1009 29.8 839 24.78 -5.1 22.8 69 -9.9 14.1
20:10 1009 29.8 839 24.78 -5.1 22.9 70 -9.7 14.6
20:15 1010 29.83 839 24.78 -5.3 22.4 71 -9.7 14.5
20:20 1010 29.83 839 24.78 -5.2 22.6 70 -9.9 14.2
20:25 1010 29.83 839 24.78 -5.8 21.5 73 -9.9 14.1
20:30 1010 29.83 839 24.78 -6.5 20.2 75 -10.2 13.6
20:35 1010 29.83 839 24.78 -6.9 19.6 78 -10.2 13.7
20:40 1010 29.83 839 24.78 -7.1 19.3 81 -9.8 14.3
20:45 1010 29.83 839 24.78 -7.3 18.9 84 -9.5 14.9
20:50 1010 29.83 840 24.81 -7.5 18.5 87 -9.3 15.2
20:55 1010 29.83 840 24.81 -7.5 18.4 88 -9.2 15.5
21:00 1010 29.83 840 24.81 -7.5 18.5 89 -9 15.9
21:05 1011 29.85 840 24.81 -7.5 18.5 90 -8.9 16.1
21:10 1011 29.85 840 24.81 -7.4 18.7 91 -8.7 16.4
21:15 1011 29.85 840 24.81 -7.4 18.7 89 -8.9 16
21:20 1011 29.85 840 24.81 -7.8 18 89 -9.3 15.3
21:25 1011 29.85 840 24.81 -8.1 17.4 90 -9.5 14.9
21:30 1011 29.85 840 24.81 -8.2 17.2 90 -9.5 14.9
21:35 1011 29.85 840 24.81 -8.2 17.3 91 -9.4 15.1
21:40 1011 29.85 840 24.81 -8 17.6 91 -9.3 15.3
21:45 1011 29.85 840 24.81 -7.9 17.8 91 -9.1 15.6
21:50 1011 29.85 840 24.81 -7.7 18.2 91 -8.9 16
21:55 1011 29.85 840 24.81 -7.6 18.4 90 -8.9 16
22:00 1011 29.85 840 24.81 -7.6 18.3 90 -9 15.8
22:05 1011 29.85 840 24.81 -7.8 18 91 -9.1 15.7
22:10 1011 29.85 840 24.81 -7.8 17.9 90 -9.2 15.5
22:15 1011 29.85 840 24.81 -7.9 17.8 90 -9.2 15.4
22:20 1011 29.85 840 24.81 -8 17.7 90 -9.4 15.1
22:25 1011 29.85 841 24.83 -8 17.7 89 -9.5 14.9
22:30 1011 29.85 841 24.83 -8.1 17.4 90 -9.5 14.9
22:35 1011 29.85 841 24.83 -8.2 17.2 89 -9.7 14.5
22:40 1012 29.88 841 24.83 -8.4 17 89 -9.9 14.2
22:45 1012 29.88 841 24.83 -8.5 16.7 89 -9.9 14.1
22:50 1012 29.88 841 24.83 -8.6 16.6 90 -10 14.1
22:55 1012 29.88 841 24.83 -8.7 16.3 90 -10.1 13.8
23:00 1012 29.88 841 24.83 -8.8 16.2 90 -10.2 13.6
23:05 1012 29.88 841 24.83 -8.8 16.1 90 -10.3 13.5
23:10 1012 29.88 841 24.83 -8.9 15.9 89 -10.4 13.3
23:15 1012 29.88 841 24.83 -9.1 15.7 90 -10.5 13.1
23:20 1012 29.88 841 24.83 -9.1 15.5 88 -10.8 12.6
23:25 1012 29.88 842 24.86 -9.3 15.3 89 -10.8 12.6
23:30 1012 29.88 842 24.86 -9.4 15.2 87 -11.1 12
23:35 1013 29.91 842 24.86 -9.7 14.5 87 -11.4 11.4
23:40 1013 29.91 842 24.86 -10 14 87 -11.7 10.9
23:45 1013 29.91 842 24.86 -10.2 13.7 88 -11.7 10.9
23:50 1013 29.91 842 24.86 -10.3 13.5 88 -11.9 10.6
23:55 1013 29.91 842 24.86 -10.4 13.3 88 -12 10.4
24:00 1013 29.91 842 24.86 -10.5 13.1 88 -12.1 10.2